createdAt,value
2024-01-04T00:00:44.203Z,98979.38
2024-01-04T00:03:11.162Z,98989.44
2024-01-04T00:05:38.263Z,98989.16
2024-01-04T00:08:05.474Z,98987.84
2024-01-04T00:10:32.459Z,98982.69
2024-01-04T00:12:59.349Z,98984.09
2024-01-04T00:15:26.258Z,98981.97
2024-01-04T00:17:53.433Z,98991.25
2024-01-04T00:20:20.551Z,98984.22
2024-01-04T00:22:48.142Z,98971.63
2024-01-04T00:25:15.143Z,98976.78
2024-01-04T00:27:42.102Z,98972.44
2024-01-04T00:30:09.707Z,98972.97
2024-01-04T00:32:36.917Z,98980.47
2024-01-04T00:35:04.220Z,98991.25
2024-01-04T00:37:31.283Z,98983.81
2024-01-04T00:39:58.203Z,98988.78
2024-01-04T00:42:25.092Z,98976.44
2024-01-04T00:44:52.250Z,98963.56
2024-01-04T00:47:19.201Z,98964.09
2024-01-04T00:49:46.445Z,98954.31
2024-01-04T00:52:13.477Z,98955.50
2024-01-04T00:54:40.681Z,98959.84
2024-01-04T00:57:07.658Z,98966.94
2024-01-04T00:59:34.656Z,98963.56
2024-01-04T01:02:01.551Z,98970.63
2024-01-04T01:04:28.568Z,98968.34
2024-01-04T01:06:55.495Z,98969.44
2024-01-04T01:09:22.477Z,98964.66
2024-01-04T01:11:49.414Z,98956.78
2024-01-04T01:14:16.379Z,98962.34
2024-01-04T01:16:43.295Z,98959.03
2024-01-04T01:19:10.500Z,98959.38
2024-01-04T01:21:37.592Z,98954.50
2024-01-04T01:24:04.945Z,98955.81
2024-01-04T01:26:32.023Z,98960.63
2024-01-04T01:28:59.322Z,98952.63
2024-01-04T01:31:26.223Z,98948.81
2024-01-04T01:33:53.261Z,98955.19
2024-01-04T01:36:20.418Z,98945.94
2024-01-04T01:38:47.662Z,98952.03
2024-01-04T01:41:14.646Z,98951.09
2024-01-04T01:43:42.782Z,98953.69
2024-01-04T01:46:09.755Z,98959.06
2024-01-04T01:48:36.955Z,98964.44
2024-01-04T01:51:04.521Z,98961.78
2024-01-04T01:53:32.013Z,98957.94
2024-01-04T01:55:59.463Z,98955.59
2024-01-04T01:58:26.589Z,98961.75
2024-01-04T02:00:54.015Z,98946.78
2024-01-04T02:03:21.360Z,98940.09
2024-01-04T02:05:48.698Z,98937.25
2024-01-04T02:08:16.000Z,98943.72
2024-01-04T02:10:43.243Z,98926.16
2024-01-04T02:13:11.551Z,98924.09
2024-01-04T02:15:38.716Z,98919.72
2024-01-04T02:18:06.549Z,98932.38
2024-01-04T02:20:34.211Z,98919.22
2024-01-04T02:23:03.245Z,98928.56
2024-01-04T02:25:34.066Z,98937.31
2024-01-04T02:28:01.473Z,98940.13
2024-01-04T02:30:29.089Z,98929.56
2024-01-04T02:32:56.806Z,98932.94
2024-01-04T02:35:24.324Z,98940.97
2024-01-04T02:37:51.612Z,98937.34
2024-01-04T02:40:18.967Z,98942.50
2024-01-04T02:42:46.296Z,98953.31
2024-01-04T02:45:14.857Z,98937.81
2024-01-04T02:47:43.552Z,98956.94
2024-01-04T02:50:13.059Z,98948.97
2024-01-04T02:52:40.442Z,98974.03
2024-01-04T02:55:08.191Z,98977.88
2024-01-04T02:57:35.480Z,98981.69
2024-01-04T03:00:02.898Z,98977.53
2024-01-04T03:02:30.286Z,98986.88
2024-01-04T03:04:57.720Z,98980.06
2024-01-04T03:07:25.259Z,98991.25
2024-01-04T03:09:53.016Z,98979.97
2024-01-04T03:12:20.347Z,98985.66
2024-01-04T03:14:47.689Z,98987.75
2024-01-04T03:17:15.204Z,98976.91
2024-01-04T03:19:42.653Z,98989.53
2024-01-04T03:22:10.047Z,98995.69
2024-01-04T03:24:37.353Z,98993.63
2024-01-04T03:27:05.086Z,98988.47
2024-01-04T03:29:32.383Z,98986.44
2024-01-04T03:31:59.872Z,98967.06
2024-01-04T03:34:30.322Z,98961.16
2024-01-04T03:36:57.783Z,98957.78
2024-01-04T03:39:24.895Z,98950.75
2024-01-04T03:41:51.821Z,98946.09
2024-01-04T03:44:18.956Z,98938.63
2024-01-04T03:46:45.865Z,98935.75
2024-01-04T03:49:13.132Z,98934.00
2024-01-04T03:51:40.250Z,98940.19
2024-01-04T03:54:07.626Z,98936.81
2024-01-04T03:56:37.264Z,98938.41
2024-01-04T03:59:04.721Z,98938.41
2024-01-04T04:01:32.962Z,98937.88
2024-01-04T04:04:02.091Z,98944.09
2024-01-04T04:06:29.660Z,98944.84
2024-01-04T04:08:57.381Z,98948.22
2024-01-04T04:11:24.693Z,98960.38
2024-01-04T04:13:51.813Z,98964.78
2024-01-04T04:16:18.843Z,98963.22
2024-01-04T04:18:45.995Z,98962.66
2024-01-04T04:21:21.189Z,98969.41
2024-01-04T04:23:51.395Z,98962.69
2024-01-04T04:26:22.559Z,98968.88
2024-01-04T04:28:50.460Z,98948.44
2024-01-04T04:31:18.655Z,98951.81
2024-01-04T04:33:47.320Z,98949.75
2024-01-04T04:36:15.447Z,98960.84
2024-01-04T04:38:45.932Z,98963.19
2024-01-04T04:41:13.036Z,98958.53
2024-01-04T04:43:39.973Z,98946.41
2024-01-04T04:46:11.828Z,98947.44
2024-01-04T04:48:39.587Z,98940.22
2024-01-04T04:51:07.020Z,98943.06
2024-01-04T04:53:34.494Z,98939.19
2024-01-04T04:56:03.396Z,98944.88
2024-01-04T04:58:33.759Z,98945.66
2024-01-04T05:01:03.062Z,98943.31
2024-01-04T05:03:30.744Z,98951.59
2024-01-04T05:05:59.275Z,98961.66
2024-01-04T05:08:26.605Z,98951.59
2024-01-04T05:10:53.951Z,98953.16
2024-01-04T05:13:21.333Z,98937.13
2024-01-04T05:15:49.018Z,98945.13
2024-01-04T05:18:16.655Z,98959.09
2024-01-04T05:20:45.737Z,98943.84
2024-01-04T05:23:13.229Z,98938.16
2024-01-04T05:25:42.020Z,98941.75
2024-01-04T05:28:09.618Z,98946.94
2024-01-04T05:30:44.479Z,98944.31
2024-01-04T05:33:13.079Z,98945.13
2024-01-04T05:35:40.516Z,98946.69
2024-01-04T05:38:07.909Z,98968.09
2024-01-04T05:40:35.329Z,98962.19
2024-01-04T05:43:02.569Z,98974.56
2024-01-04T05:45:29.954Z,98969.66
2024-01-04T05:47:57.383Z,98970.44
2024-01-04T05:50:24.738Z,98964.50
2024-01-04T05:52:52.306Z,98968.84
2024-01-04T05:55:19.644Z,98976.63
2024-01-04T05:57:47.036Z,98969.91
2024-01-04T06:00:18.390Z,98973.56
2024-01-04T06:02:46.661Z,98972.00
2024-01-04T06:05:14.784Z,98963.72
2024-01-04T06:07:42.167Z,98970.69
2024-01-04T06:10:09.836Z,98969.13
2024-01-04T06:12:37.171Z,98961.66
2024-01-04T06:15:06.615Z,98965.53
2024-01-04T06:17:34.108Z,98965.75
2024-01-04T06:20:01.654Z,98970.16
2024-01-04T06:22:29.320Z,98967.84
2024-01-04T06:24:56.677Z,98968.84
2024-01-04T06:27:24.157Z,98964.41
2024-01-04T06:29:52.973Z,98976.03
2024-01-04T06:32:21.657Z,98974.97
2024-01-04T06:34:49.023Z,98969.75
2024-01-04T06:37:16.570Z,98978.44
2024-01-04T06:39:46.460Z,98987.47
2024-01-04T06:42:16.301Z,98984.47
2024-01-04T06:44:47.742Z,98990.69
2024-01-04T06:47:16.506Z,98994.75
2024-01-04T06:49:44.349Z,98987.69
2024-01-04T06:52:12.049Z,98979.53
2024-01-04T06:54:40.146Z,98983.59
2024-01-04T06:57:08.255Z,98986.09
2024-01-04T06:59:36.632Z,98983.41
2024-01-04T07:02:07.331Z,98970.22
2024-01-04T07:04:35.084Z,98990.41
2024-01-04T07:07:02.956Z,98990.41
2024-01-04T07:09:30.364Z,98982.09
2024-01-04T07:11:58.270Z,98981.00
2024-01-04T07:14:28.080Z,98983.78
2024-01-04T07:16:55.909Z,98978.09
2024-01-04T07:19:23.901Z,98980.34
2024-01-04T07:21:52.448Z,98992.94
2024-01-04T07:24:19.856Z,98990.38
2024-01-04T07:26:47.253Z,98996.88
2024-01-04T07:29:15.083Z,98985.72
2024-01-04T07:31:42.621Z,98975.91
2024-01-04T07:34:10.419Z,98975.25
2024-01-04T07:36:39.970Z,98979.06
2024-01-04T07:39:08.098Z,98975.69
2024-01-04T07:41:38.242Z,98970.97
2024-01-04T07:44:09.817Z,98968.94
2024-01-04T07:46:37.366Z,98967.28
2024-01-04T07:49:05.852Z,98972.69
2024-01-04T07:51:33.264Z,98972.78
2024-01-04T07:54:00.397Z,98960.22
2024-01-04T07:56:27.304Z,98951.66
2024-01-04T07:58:54.584Z,98961.00
2024-01-04T08:01:21.694Z,98954.28
2024-01-04T08:03:49.519Z,98957.19
2024-01-04T08:06:16.836Z,98951.44
2024-01-04T08:08:43.981Z,98952.28
2024-01-04T08:11:11.022Z,98950.47
2024-01-04T08:13:38.358Z,98946.00
2024-01-04T08:16:05.670Z,98957.28
2024-01-04T08:18:34.941Z,98943.59
2024-01-04T08:21:03.664Z,98945.09
2024-01-04T08:23:31.868Z,98948.56
2024-01-04T08:25:58.888Z,98941.38
2024-01-04T08:28:25.940Z,98943.28
2024-01-04T08:30:53.592Z,98935.00
2024-01-04T08:33:20.945Z,98922.66
2024-01-04T08:35:48.150Z,98926.81
2024-01-04T08:38:15.317Z,98929.22
2024-01-04T08:40:42.273Z,98917.06
2024-01-04T08:43:09.395Z,98910.22
2024-01-04T08:45:37.324Z,98897.00
2024-01-04T08:48:06.919Z,98891.13
2024-01-04T08:50:34.027Z,98883.47
2024-01-04T08:53:01.019Z,98884.63
2024-01-04T08:55:28.016Z,98895.41
2024-01-04T08:57:54.967Z,98885.13
2024-01-04T09:00:22.121Z,98883.22
2024-01-04T09:02:49.305Z,98878.94
2024-01-04T09:05:16.328Z,98878.03
2024-01-04T09:07:43.648Z,98880.69
2024-01-04T09:10:10.726Z,98881.47
2024-01-04T09:12:39.918Z,98880.16
2024-01-04T09:15:09.109Z,98880.78
2024-01-04T09:17:36.799Z,98882.66
2024-01-04T09:20:04.899Z,98882.03
2024-01-04T09:22:32.004Z,98876.06
2024-01-04T09:24:58.972Z,98883.75
2024-01-04T09:27:26.707Z,98887.94
2024-01-04T09:29:54.184Z,98885.78
2024-01-04T09:32:21.681Z,98870.25
2024-01-04T09:34:51.250Z,98863.03
2024-01-04T09:37:18.594Z,98865.00
2024-01-04T09:39:45.997Z,98848.41
2024-01-04T09:42:16.289Z,98849.97
2024-01-04T09:44:43.809Z,98842.91
2024-01-04T09:47:11.937Z,98827.22
2024-01-04T09:49:40.598Z,98834.91
2024-01-04T09:52:11.112Z,98826.44
2024-01-04T09:54:40.665Z,98816.13
2024-01-04T09:57:11.877Z,98812.44
2024-01-04T09:59:38.977Z,98805.53
2024-01-04T10:02:10.115Z,98800.63
2024-01-04T10:04:38.747Z,98793.88
2024-01-04T10:07:08.612Z,98783.91
2024-01-04T10:09:55.121Z,98779.44
2024-01-04T10:12:23.691Z,98772.34
2024-01-04T10:14:51.138Z,98776.06
2024-01-04T10:17:20.726Z,98781.56
2024-01-04T10:19:48.607Z,98776.00
2024-01-04T10:22:16.611Z,98777.03
2024-01-04T10:24:44.139Z,98770.59
2024-01-04T10:27:16.842Z,98766.22
2024-01-04T10:29:46.796Z,98761.09
2024-01-04T10:32:15.348Z,98743.72
2024-01-04T10:34:43.454Z,98741.72
2024-01-04T10:37:18.903Z,98742.53
2024-01-04T10:40:04.730Z,98751.06
2024-01-04T10:42:32.962Z,98750.66
2024-01-04T10:45:00.770Z,98743.28
2024-01-04T10:47:28.659Z,98746.38
2024-01-04T10:50:01.833Z,98730.03
2024-01-04T10:52:33.452Z,98709.13
2024-01-04T10:55:04.709Z,98700.06
2024-01-04T10:57:35.094Z,98708.63
2024-01-04T11:00:08.107Z,98707.44
2024-01-04T11:02:38.234Z,98700.31
2024-01-04T11:05:08.048Z,98694.94
2024-01-04T11:07:41.014Z,98701.97
2024-01-04T11:10:10.894Z,98693.94
2024-01-04T11:12:40.506Z,98682.66
2024-01-04T11:15:13.563Z,98692.63
2024-01-04T11:18:06.122Z,98698.63
2024-01-04T11:20:43.892Z,98700.81
2024-01-04T11:23:22.020Z,98695.47
2024-01-04T11:26:33.948Z,98705.44
2024-01-04T11:29:09.886Z,98700.59
2024-01-04T11:31:44.408Z,98691.88
2024-01-04T11:34:16.407Z,98675.28
2024-01-04T11:36:44.138Z,98673.47
2024-01-04T11:39:12.397Z,98659.41
2024-01-04T11:41:40.229Z,98654.78
2024-01-04T11:44:21.042Z,98638.81
2024-01-04T11:46:59.991Z,98619.31
2024-01-04T11:49:28.040Z,98610.47
2024-01-04T11:51:57.786Z,98606.06
2024-01-04T11:54:26.345Z,98607.16
2024-01-04T11:56:54.017Z,98595.78
2024-01-04T11:59:33.978Z,98614.38
2024-01-04T12:02:02.140Z,98612.00
2024-01-04T12:04:31.240Z,98613.41
2024-01-04T12:07:02.620Z,98623.69
2024-01-04T12:09:30.835Z,98606.69
2024-01-04T12:11:59.221Z,98587.91
2024-01-04T12:14:28.370Z,98575.16
2024-01-04T12:16:56.217Z,98572.34
2024-01-04T12:19:23.816Z,98584.78
2024-01-04T12:21:52.515Z,98581.94
2024-01-04T12:24:20.096Z,98582.81
2024-01-04T12:26:48.310Z,98568.44
2024-01-04T12:29:16.391Z,98569.94
2024-01-04T12:31:47.268Z,98571.78
2024-01-04T12:34:16.243Z,98564.53
2024-01-04T12:36:43.883Z,98562.91
2024-01-04T12:39:15.462Z,98554.06
2024-01-04T12:41:47.906Z,98556.75
2024-01-04T12:44:16.733Z,98551.16
2024-01-04T12:46:45.853Z,98544.34
2024-01-04T12:49:17.644Z,98538.47
2024-01-04T12:51:47.943Z,98545.81
2024-01-04T12:54:16.710Z,98544.25
2024-01-04T12:56:44.441Z,98547.25
2024-01-04T12:59:16.706Z,98542.72
2024-01-04T13:01:44.123Z,98533.47
2024-01-04T13:04:12.675Z,98531.81
2024-01-04T13:06:40.183Z,98526.75
2024-01-04T13:09:16.107Z,98518.41
2024-01-04T13:11:44.013Z,98512.59
2024-01-04T13:14:12.487Z,98517.66
2024-01-04T13:16:40.899Z,98522.53
2024-01-04T13:19:08.451Z,98514.94
2024-01-04T13:21:35.885Z,98511.94
2024-01-04T13:24:03.358Z,98499.22
2024-01-04T13:26:30.735Z,98490.59
2024-01-04T13:28:58.117Z,98487.66
2024-01-04T13:31:25.535Z,98484.03
2024-01-04T13:33:53.277Z,98481.66
2024-01-04T13:36:22.098Z,98478.13
2024-01-04T13:38:50.560Z,98483.16
2024-01-04T13:41:20.589Z,98469.28
2024-01-04T13:43:48.479Z,98471.41
2024-01-04T13:46:16.460Z,98457.03
2024-01-04T13:48:44.309Z,98469.97
2024-01-04T13:51:12.215Z,98464.91
2024-01-04T13:53:39.612Z,98477.63
2024-01-04T13:56:08.348Z,98478.81
2024-01-04T13:58:35.615Z,98484.41
2024-01-04T14:01:04.569Z,98472.53
2024-01-04T14:03:32.622Z,98458.44
2024-01-04T14:06:01.277Z,98466.72
2024-01-04T14:08:29.943Z,98470.06
2024-01-04T14:10:57.727Z,98473.44
2024-01-04T14:13:25.177Z,98473.03
2024-01-04T14:15:52.683Z,98471.06
2024-01-04T14:18:20.389Z,98454.50
2024-01-04T14:20:51.367Z,98461.78
2024-01-04T14:23:19.158Z,98467.09
2024-01-04T14:25:46.633Z,98479.53
2024-01-04T14:28:14.314Z,98489.94
2024-01-04T14:30:41.788Z,98502.50
2024-01-04T14:33:09.426Z,98522.47
2024-01-04T14:35:37.974Z,98549.41
2024-01-04T14:38:05.358Z,98566.03
2024-01-04T14:40:32.934Z,98571.13
2024-01-04T14:43:01.388Z,98566.72
2024-01-04T14:45:29.631Z,98580.03
2024-01-04T14:47:57.568Z,98576.31
2024-01-04T14:50:28.422Z,98567.31
2024-01-04T14:52:57.594Z,98562.72
2024-01-04T14:55:27.675Z,98549.97
2024-01-04T14:57:57.098Z,98541.63
2024-01-04T15:00:28.161Z,98548.50
2024-01-04T15:02:55.567Z,98511.00
2024-01-04T15:05:22.934Z,98490.88
2024-01-04T15:07:49.962Z,98498.22
2024-01-04T15:10:16.975Z,98512.91
2024-01-04T15:12:44.654Z,98516.50
2024-01-04T15:15:23.177Z,98521.53
2024-01-04T15:17:54.391Z,98514.31
2024-01-04T15:20:23.015Z,98503.00
2024-01-04T15:22:51.094Z,98484.78
2024-01-04T15:25:19.478Z,98485.47
2024-01-04T15:27:46.552Z,98490.66
2024-01-04T15:30:17.398Z,98486.97
2024-01-04T15:32:45.126Z,98489.25
2024-01-04T15:35:14.150Z,98526.09
2024-01-04T15:37:44.957Z,98574.22
2024-01-04T15:40:13.302Z,98571.69
2024-01-04T15:42:45.775Z,98604.09
2024-01-04T15:45:17.058Z,98677.53
2024-01-04T15:47:45.478Z,98680.75
2024-01-04T15:50:14.975Z,98706.91
2024-01-04T15:52:43.774Z,98710.41
2024-01-04T15:55:11.016Z,98716.47
2024-01-04T15:57:39.159Z,98737.00
2024-01-04T16:00:06.822Z,98733.41
2024-01-04T16:02:36.070Z,98761.19
2024-01-04T16:05:27.314Z,98765.88
2024-01-04T16:07:55.186Z,98768.72
2024-01-04T16:10:26.422Z,98762.72
2024-01-04T16:12:55.272Z,98760.06
2024-01-04T16:15:24.154Z,98763.25
2024-01-04T16:17:55.872Z,98775.63
2024-01-04T16:20:30.947Z,98770.94
2024-01-04T16:23:06.700Z,98772.25
2024-01-04T16:25:36.228Z,98762.00
2024-01-04T16:28:04.886Z,98761.75
2024-01-04T16:30:36.338Z,98754.34
2024-01-04T16:33:06.340Z,98743.75
2024-01-04T16:35:33.568Z,98737.69
2024-01-04T16:38:02.784Z,98716.13
2024-01-04T16:40:29.925Z,98739.97
2024-01-04T16:43:00.095Z,98728.84
2024-01-04T16:45:28.481Z,98744.81
2024-01-04T16:47:56.525Z,98741.03
2024-01-04T16:50:27.409Z,98740.59
2024-01-04T16:52:55.563Z,98745.06
2024-01-04T16:55:25.002Z,98745.03
2024-01-04T16:57:53.445Z,98735.25
2024-01-04T17:00:24.817Z,98737.31
2024-01-04T17:02:53.622Z,98730.88
2024-01-04T17:05:22.039Z,98730.97
2024-01-04T17:07:50.802Z,98732.06
2024-01-04T17:10:22.111Z,98721.09
2024-01-04T17:12:52.200Z,98714.94
2024-01-04T17:15:20.837Z,98727.53
2024-01-04T17:17:49.382Z,98721.44
2024-01-04T17:20:19.850Z,98729.72
2024-01-04T17:22:47.700Z,98745.38
2024-01-04T17:25:15.182Z,98753.03
2024-01-04T17:27:43.572Z,98752.34
2024-01-04T17:30:11.597Z,98749.56
2024-01-04T17:33:09.366Z,98751.59
2024-01-04T17:35:40.312Z,98747.19
2024-01-04T17:38:10.916Z,98751.50
2024-01-04T17:40:38.851Z,98742.94
2024-01-04T17:43:10.496Z,98732.84
2024-01-04T17:45:41.738Z,98727.09
2024-01-04T17:48:12.431Z,98737.19
2024-01-04T17:50:41.869Z,98746.97
2024-01-04T17:53:11.358Z,98760.69
2024-01-04T17:55:39.562Z,98746.78
2024-01-04T17:58:08.451Z,98770.16
2024-01-04T18:00:36.576Z,98766.31
2024-01-04T18:03:06.879Z,98767.53
2024-01-04T18:05:35.826Z,98778.03
2024-01-04T18:08:03.645Z,98783.88
2024-01-04T18:10:32.661Z,98783.63
2024-01-04T18:13:01.318Z,98773.53
2024-01-04T18:15:31.153Z,98781.25
2024-01-04T18:18:20.049Z,98793.00
2024-01-04T18:20:47.406Z,98789.38
2024-01-04T18:23:15.260Z,98788.41
2024-01-04T18:25:49.075Z,98797.75
2024-01-04T18:28:22.760Z,98794.41
2024-01-04T18:30:52.794Z,98789.06
2024-01-04T18:33:27.444Z,98784.03
2024-01-04T18:35:58.583Z,98800.81
2024-01-04T18:38:27.316Z,98799.59
2024-01-04T18:40:56.394Z,98798.97
2024-01-04T18:43:23.928Z,98805.50
2024-01-04T18:46:13.607Z,98806.84
2024-01-04T18:48:44.416Z,98812.31
2024-01-04T18:51:13.389Z,98815.13
2024-01-04T18:53:47.499Z,98826.25
2024-01-04T18:56:18.396Z,98822.22
2024-01-04T18:58:47.261Z,98838.66
2024-01-04T19:01:16.159Z,98832.84
2024-01-04T19:03:44.208Z,98832.88
2024-01-04T19:06:12.228Z,98842.22
2024-01-04T19:08:45.106Z,98843.56
2024-01-04T19:11:12.550Z,98844.13
2024-01-04T19:13:42.559Z,98838.84
2024-01-04T19:16:14.602Z,98849.44
2024-01-04T19:18:50.132Z,98862.41
2024-01-04T19:21:20.860Z,98853.66
2024-01-04T19:23:50.399Z,98868.31
2024-01-04T19:26:18.789Z,98863.16
2024-01-04T19:28:47.201Z,98863.97
2024-01-04T19:31:15.554Z,98870.53
2024-01-04T19:33:43.701Z,98866.31
2024-01-04T19:36:11.683Z,98869.66
2024-01-04T19:38:40.660Z,98878.44
2024-01-04T19:41:13.862Z,98884.13
2024-01-04T19:43:42.887Z,98903.78
2024-01-04T19:46:11.905Z,98909.53
2024-01-04T19:48:41.574Z,98915.31
2024-01-04T19:51:11.858Z,98920.53
2024-01-04T19:53:39.903Z,98910.84
2024-01-04T19:56:09.387Z,98916.50
2024-01-04T19:58:38.540Z,98921.38
2024-01-04T20:01:07.875Z,98922.44
2024-01-04T20:03:37.388Z,98928.91
2024-01-04T20:06:07.896Z,98938.59
2024-01-04T20:08:37.139Z,98936.59
2024-01-04T20:11:26.770Z,98926.56
2024-01-04T20:14:14.191Z,98933.53
2024-01-04T20:16:43.070Z,98947.06
2024-01-04T20:19:14.217Z,98944.19
2024-01-04T20:21:43.550Z,98950.19
2024-01-04T20:24:16.280Z,98956.50
2024-01-04T20:26:44.550Z,98966.53
2024-01-04T20:29:12.234Z,98967.88
2024-01-04T20:31:40.368Z,98966.22
2024-01-04T20:34:09.540Z,98985.66
2024-01-04T20:36:36.920Z,98993.50
2024-01-04T20:39:09.533Z,98994.72
2024-01-04T20:41:37.060Z,98997.47
2024-01-04T20:44:05.120Z,99007.81
2024-01-04T20:46:32.320Z,99025.09
2024-01-04T20:48:59.631Z,99024.00
2024-01-04T20:51:29.568Z,99031.25
2024-01-04T20:53:57.531Z,99035.44
2024-01-04T20:56:25.279Z,99032.63
2024-01-04T20:58:53.142Z,99032.34
2024-01-04T21:01:41.884Z,99035.88
2024-01-04T21:04:10.574Z,99042.19
2024-01-04T21:06:37.902Z,99033.59
2024-01-04T21:09:05.765Z,99033.88
2024-01-04T21:11:33.591Z,99037.00
2024-01-04T21:14:03.801Z,99041.47
2024-01-04T21:16:31.242Z,99039.44
2024-01-04T21:18:59.602Z,99051.56
2024-01-04T21:21:27.332Z,99054.84
2024-01-04T21:23:55.110Z,99061.78
2024-01-04T21:26:23.028Z,99066.88
2024-01-04T21:28:51.950Z,99059.78
2024-01-04T21:31:21.351Z,99063.03
2024-01-04T21:33:49.263Z,99059.31
2024-01-04T21:36:19.162Z,99055.16
2024-01-04T21:38:46.809Z,99040.06
2024-01-04T21:41:35.469Z,99043.13
2024-01-04T21:44:03.900Z,99048.38
2024-01-04T21:46:31.146Z,99048.63
2024-01-04T21:48:59.961Z,99051.41
2024-01-04T21:51:27.886Z,99050.97
2024-01-04T21:53:55.285Z,99052.06
2024-01-04T21:56:27.511Z,99054.06
2024-01-04T21:58:56.126Z,99060.56
2024-01-04T22:01:46.606Z,99058.84
2024-01-04T22:04:14.186Z,99060.41
2024-01-04T22:06:46.038Z,99060.56
2024-01-04T22:09:13.772Z,99062.88
2024-01-04T22:11:43.194Z,99062.09
2024-01-04T22:14:11.192Z,99063.19
2024-01-04T22:16:41.007Z,99080.13
2024-01-04T22:19:13.432Z,99067.81
2024-01-04T22:21:41.253Z,99078.75
2024-01-04T22:24:08.933Z,99087.03
2024-01-04T22:26:36.925Z,99093.06
2024-01-04T22:29:04.667Z,99096.13
2024-01-04T22:31:31.932Z,99100.75
2024-01-04T22:33:59.353Z,99103.81
2024-01-04T22:36:27.081Z,99109.22
2024-01-04T22:38:54.383Z,99112.59
2024-01-04T22:41:21.705Z,99110.00
2024-01-04T22:43:49.081Z,99117.69
2024-01-04T22:46:16.395Z,99120.00
2024-01-04T22:48:44.832Z,99128.75
2024-01-04T22:51:12.033Z,99132.31
2024-01-04T22:53:39.857Z,99129.56
2024-01-04T22:56:07.597Z,99137.41
2024-01-04T22:58:35.096Z,99144.50
2024-01-04T23:01:05.070Z,99134.19
2024-01-04T23:03:36.340Z,99144.97
2024-01-04T23:06:06.726Z,99141.25
2024-01-04T23:08:36.596Z,99136.47
2024-01-04T23:11:04.492Z,99136.59
2024-01-04T23:13:31.790Z,99140.47
2024-01-04T23:15:59.232Z,99138.94
2024-01-04T23:18:26.661Z,99147.88
2024-01-04T23:20:53.999Z,99141.84
2024-01-04T23:23:22.465Z,99137.84
2024-01-04T23:25:49.972Z,99144.91
2024-01-04T23:28:17.113Z,99141.88
2024-01-04T23:30:44.289Z,99146.66
2024-01-04T23:33:11.599Z,99160.34
2024-01-04T23:35:39.732Z,99156.50
2024-01-04T23:38:08.203Z,99154.66
2024-01-04T23:40:36.227Z,99162.63
2024-01-04T23:43:03.577Z,99167.88
2024-01-04T23:45:30.747Z,99169.72
2024-01-04T23:47:58.950Z,99163.81
2024-01-04T23:50:26.198Z,99177.34
2024-01-04T23:52:53.430Z,99174.88
2024-01-04T23:55:20.739Z,99174.69
2024-01-04T23:57:47.866Z,99182.06
